createdAt,value
2018-01-18T00:00:52.177Z,3.90
2018-01-18T00:03:19.599Z,3.90
2018-01-18T00:05:47.010Z,3.90
2018-01-18T00:08:14.430Z,3.90
2018-01-18T00:10:41.865Z,3.90
2018-01-18T00:13:10.063Z,3.90
2018-01-18T00:15:38.269Z,3.90
2018-01-18T00:18:05.688Z,3.90
2018-01-18T00:20:33.216Z,3.90
2018-01-18T00:23:00.622Z,3.90
2018-01-18T00:25:28.801Z,3.90
2018-01-18T00:27:56.250Z,3.90
2018-01-18T00:30:23.669Z,3.90
2018-01-18T00:32:51.866Z,3.90
2018-01-18T00:35:20.069Z,3.90
2018-01-18T00:37:47.561Z,3.90
2018-01-18T00:40:15.028Z,3.90
2018-01-18T00:42:42.482Z,3.90
2018-01-18T00:45:09.915Z,3.80
2018-01-18T00:47:38.089Z,3.80
2018-01-18T00:50:05.608Z,3.70
2018-01-18T00:52:33.030Z,3.70
2018-01-18T00:55:01.947Z,3.60
2018-01-18T00:57:30.122Z,3.60
2018-01-18T00:59:58.312Z,3.60
2018-01-18T01:02:26.488Z,3.60
2018-01-18T01:04:54.725Z,3.60
2018-01-18T01:07:22.131Z,3.60
2018-01-18T01:09:49.558Z,3.60
2018-01-18T01:12:16.986Z,3.60
2018-01-18T01:14:44.589Z,3.60
2018-01-18T01:17:11.998Z,3.60
2018-01-18T01:19:39.430Z,3.60
2018-01-18T01:22:06.857Z,3.60
2018-01-18T01:24:34.275Z,3.60
2018-01-18T01:27:01.759Z,3.60
2018-01-18T01:29:29.165Z,3.60
2018-01-18T01:31:57.375Z,3.60
2018-01-18T01:34:24.816Z,3.60
2018-01-18T01:36:52.233Z,3.60
2018-01-18T01:39:19.657Z,3.60
2018-01-18T01:41:47.916Z,3.60
2018-01-18T01:44:15.369Z,3.50
2018-01-18T01:46:42.826Z,3.50
2018-01-18T01:49:10.249Z,3.50
2018-01-18T01:51:38.461Z,3.50
2018-01-18T01:54:05.881Z,3.40
2018-01-18T01:56:33.411Z,3.40
2018-01-18T01:59:00.829Z,3.40
2018-01-18T02:01:28.353Z,3.40
2018-01-18T02:03:55.828Z,3.40
2018-01-18T02:06:23.245Z,3.30
2018-01-18T02:08:50.670Z,3.40
2018-01-18T02:11:18.138Z,3.40
2018-01-18T02:13:45.542Z,3.30
2018-01-18T02:16:12.961Z,3.40
2018-01-18T02:18:40.386Z,3.40
2018-01-18T02:21:07.892Z,3.40
2018-01-18T02:23:35.352Z,3.30
2018-01-18T02:26:02.777Z,3.30
2018-01-18T02:28:30.221Z,3.40
2018-01-18T02:30:57.671Z,3.40
2018-01-18T02:33:25.083Z,3.40
2018-01-18T02:35:52.530Z,3.40
2018-01-18T02:38:19.943Z,3.40
2018-01-18T02:40:48.161Z,3.30
2018-01-18T02:43:15.594Z,3.30
2018-01-18T02:45:43.773Z,3.40
2018-01-18T02:48:11.206Z,3.40
2018-01-18T02:50:38.626Z,3.40
2018-01-18T02:53:06.836Z,3.50
2018-01-18T02:55:34.253Z,3.50
2018-01-18T02:58:01.779Z,3.50
2018-01-18T03:00:29.218Z,3.50
2018-01-18T03:02:57.443Z,3.50
2018-01-18T03:05:24.853Z,3.50
2018-01-18T03:07:52.303Z,3.50
2018-01-18T03:10:19.742Z,3.60
2018-01-18T03:12:47.210Z,3.60
2018-01-18T03:15:15.382Z,3.60
2018-01-18T03:17:42.813Z,3.60
2018-01-18T03:20:10.221Z,3.60
2018-01-18T03:22:37.659Z,3.60
2018-01-18T03:25:05.889Z,3.60
2018-01-18T03:27:33.309Z,3.60
2018-01-18T03:30:00.757Z,3.60
2018-01-18T03:32:28.265Z,3.50
2018-01-18T03:34:56.477Z,3.50
2018-01-18T03:37:23.938Z,3.60
2018-01-18T03:39:51.356Z,3.50
2018-01-18T03:42:18.901Z,3.50
2018-01-18T03:44:46.303Z,3.50
2018-01-18T03:47:13.734Z,3.60
2018-01-18T03:49:41.161Z,3.60
2018-01-18T03:52:09.329Z,3.60
2018-01-18T03:54:36.947Z,3.50
2018-01-18T03:57:04.365Z,3.60
2018-01-18T03:59:31.885Z,3.60
2018-01-18T04:01:59.321Z,3.60
2018-01-18T04:04:27.530Z,3.60
2018-01-18T04:06:54.958Z,3.60
2018-01-18T04:09:22.473Z,3.50
2018-01-18T04:11:49.897Z,3.50
2018-01-18T04:14:17.335Z,3.50
2018-01-18T04:16:44.780Z,3.50
2018-01-18T04:19:12.204Z,3.50
2018-01-18T04:21:39.714Z,3.60
2018-01-18T04:24:07.152Z,3.60
2018-01-18T04:26:35.333Z,3.60
2018-01-18T04:29:03.509Z,3.60
2018-01-18T04:31:30.956Z,3.60
2018-01-18T04:33:58.352Z,3.60
2018-01-18T04:36:26.567Z,3.60
2018-01-18T04:38:54.760Z,3.60
2018-01-18T04:41:22.177Z,3.60
2018-01-18T04:43:49.603Z,3.60
2018-01-18T04:46:17.145Z,3.60
2018-01-18T04:48:45.335Z,3.60
2018-01-18T04:51:12.832Z,3.60
2018-01-18T04:53:40.296Z,3.60
2018-01-18T04:56:07.729Z,3.60
2018-01-18T04:58:35.911Z,3.60
2018-01-18T05:01:04.106Z,3.60
2018-01-18T05:03:32.329Z,3.50
2018-01-18T05:05:59.741Z,3.50
2018-01-18T05:08:27.161Z,3.50
2018-01-18T05:10:54.573Z,3.50
2018-01-18T05:13:22.131Z,3.50
2018-01-18T05:15:49.568Z,3.50
2018-01-18T05:18:17.029Z,3.50
2018-01-18T05:20:44.514Z,3.50
2018-01-18T05:23:11.960Z,3.50
2018-01-18T05:25:40.137Z,3.40
2018-01-18T05:28:08.316Z,3.40
2018-01-18T05:30:36.509Z,3.40
2018-01-18T05:33:04.698Z,3.40
2018-01-18T05:35:33.053Z,3.40
2018-01-18T05:38:00.530Z,3.40
2018-01-18T05:40:27.954Z,3.40
2018-01-18T05:42:55.366Z,3.40
2018-01-18T05:45:22.781Z,3.40
2018-01-18T05:47:50.219Z,3.40
2018-01-18T05:50:18.401Z,3.40
2018-01-18T05:52:46.651Z,3.40
2018-01-18T05:55:14.085Z,3.40
2018-01-18T05:57:42.270Z,3.40
2018-01-18T06:00:09.678Z,3.40
2018-01-18T06:02:37.113Z,3.40
2018-01-18T06:05:04.542Z,3.40
2018-01-18T06:07:32.742Z,3.30
2018-01-18T06:10:00.921Z,3.30
2018-01-18T06:12:29.128Z,3.30
2018-01-18T06:14:56.565Z,3.20
2018-01-18T06:17:23.978Z,3.20
2018-01-18T06:19:51.385Z,3.20
2018-01-18T06:22:18.821Z,3.20
2018-01-18T06:24:46.285Z,3.20
2018-01-18T06:27:13.733Z,3.10
2018-01-18T06:29:41.885Z,3.10
2018-01-18T06:32:09.312Z,3.10
2018-01-18T06:34:36.725Z,3.10
2018-01-18T06:37:04.250Z,3.10
2018-01-18T06:39:31.660Z,3.00
2018-01-18T06:41:59.193Z,3.00
2018-01-18T06:44:26.598Z,3.00
2018-01-18T06:46:54.113Z,3.00
2018-01-18T06:49:21.591Z,2.90
2018-01-18T06:51:49.026Z,2.90
2018-01-18T06:54:17.293Z,2.80
2018-01-18T06:56:44.717Z,2.80
2018-01-18T06:59:12.105Z,2.70
2018-01-18T07:01:39.513Z,2.70
2018-01-18T07:04:07.738Z,2.50
2018-01-18T07:06:35.121Z,2.50
2018-01-18T07:09:02.628Z,2.50
2018-01-18T07:11:30.805Z,2.40
2018-01-18T07:13:58.237Z,2.40
2018-01-18T07:16:25.623Z,2.40
2018-01-18T07:18:53.085Z,2.40
2018-01-18T07:21:20.502Z,2.40
2018-01-18T07:23:48.676Z,2.40
2018-01-18T07:26:16.093Z,2.40
2018-01-18T07:28:43.538Z,2.50
2018-01-18T07:31:11.692Z,2.50
2018-01-18T07:33:39.111Z,2.50
2018-01-18T07:36:06.543Z,2.50
2018-01-18T07:38:34.721Z,2.60
2018-01-18T07:41:02.238Z,2.60
2018-01-18T07:43:29.668Z,2.60
2018-01-18T07:45:57.899Z,2.60
2018-01-18T07:48:25.453Z,2.60
2018-01-18T07:50:53.619Z,2.60
2018-01-18T07:53:21.057Z,2.60
2018-01-18T07:55:48.500Z,2.60
2018-01-18T07:58:15.925Z,2.60
2018-01-18T08:00:43.360Z,2.60
2018-01-18T08:03:16.379Z,2.60
2018-01-18T08:05:44.873Z,2.80
2018-01-18T08:08:12.271Z,2.80
2018-01-18T08:10:39.726Z,2.90
2018-01-18T08:13:07.150Z,3.00
2018-01-18T08:15:34.574Z,3.10
2018-01-18T08:18:02.006Z,3.20
2018-01-18T08:20:30.238Z,3.50
2018-01-18T08:22:57.709Z,3.50
2018-01-18T08:25:25.122Z,3.60
2018-01-18T08:27:52.650Z,3.60
2018-01-18T08:30:20.082Z,3.60
2018-01-18T08:32:47.487Z,3.70
2018-01-18T08:35:14.935Z,3.80
2018-01-18T08:37:42.350Z,4.00
2018-01-18T08:40:09.865Z,4.10
2018-01-18T08:42:37.303Z,4.20
2018-01-18T08:45:05.489Z,4.20
2018-01-18T08:47:33.696Z,4.20
2018-01-18T08:50:01.190Z,4.20
2018-01-18T08:52:28.589Z,4.20
2018-01-18T08:54:56.014Z,4.20
2018-01-18T08:57:24.242Z,4.30
2018-01-18T08:59:51.676Z,4.30
2018-01-18T09:02:19.096Z,4.30
2018-01-18T09:04:46.538Z,4.40
2018-01-18T09:07:14.014Z,4.40
2018-01-18T09:09:41.542Z,4.40
2018-01-18T09:12:08.950Z,4.40
2018-01-18T09:14:36.389Z,4.40
2018-01-18T09:17:03.845Z,4.50
2018-01-18T09:19:31.258Z,4.50
2018-01-18T09:21:58.688Z,4.40
2018-01-18T09:24:26.112Z,4.40
2018-01-18T09:26:53.741Z,4.30
2018-01-18T09:29:21.160Z,4.20
2018-01-18T09:31:48.612Z,4.20
2018-01-18T09:34:16.022Z,4.20
2018-01-18T09:36:43.710Z,4.20
2018-01-18T09:39:11.864Z,4.20
2018-01-18T09:41:41.733Z,4.20
2018-01-18T09:44:09.112Z,4.20
2018-01-18T09:46:36.566Z,4.30
2018-01-18T09:49:03.969Z,4.30
2018-01-18T09:51:31.427Z,4.40
2018-01-18T09:53:58.841Z,4.40
2018-01-18T09:56:26.253Z,4.50
2018-01-18T09:58:53.683Z,4.60
2018-01-18T10:01:21.914Z,4.80
2018-01-18T10:03:49.366Z,4.70
2018-01-18T10:06:16.835Z,4.80
2018-01-18T10:08:44.305Z,5.00
2018-01-18T10:11:11.713Z,5.20
2018-01-18T10:13:39.125Z,5.40
2018-01-18T10:16:06.601Z,5.60
2018-01-18T10:18:34.078Z,5.70
2018-01-18T10:21:01.493Z,5.80
2018-01-18T10:23:29.720Z,5.70
2018-01-18T10:25:57.217Z,5.70
2018-01-18T10:28:24.650Z,5.70
2018-01-18T10:30:52.076Z,5.80
2018-01-18T10:33:19.497Z,5.90
2018-01-18T10:35:46.938Z,6.00
2018-01-18T10:38:15.148Z,6.30
2018-01-18T10:40:43.348Z,6.50
2018-01-18T10:43:10.824Z,6.50
2018-01-18T10:45:38.976Z,6.70
2018-01-18T10:48:06.370Z,6.70
2018-01-18T10:50:33.921Z,6.80
2018-01-18T10:53:01.447Z,7.00
2018-01-18T10:55:28.869Z,7.10
2018-01-18T10:57:56.308Z,7.10
2018-01-18T11:00:23.695Z,7.40
2018-01-18T11:02:51.110Z,7.60
2018-01-18T11:05:18.577Z,7.60
2018-01-18T11:07:45.989Z,7.60
2018-01-18T11:10:14.445Z,7.60
2018-01-18T11:12:41.969Z,7.60
2018-01-18T11:15:09.437Z,7.60
2018-01-18T11:17:36.865Z,7.50
2018-01-18T11:20:04.279Z,7.50
2018-01-18T11:22:31.694Z,7.50
2018-01-18T11:24:59.112Z,7.60
2018-01-18T11:27:26.587Z,7.70
2018-01-18T11:29:54.765Z,7.60
2018-01-18T11:32:22.186Z,7.60
2018-01-18T11:34:49.702Z,7.50
2018-01-18T11:37:17.129Z,7.50
2018-01-18T11:39:44.580Z,7.50
2018-01-18T11:42:12.011Z,7.50
2018-01-18T11:44:39.413Z,7.50
2018-01-18T11:47:06.825Z,7.50
2018-01-18T11:49:35.010Z,7.50
2018-01-18T11:52:03.262Z,7.50
2018-01-18T11:54:30.793Z,7.50
2018-01-18T11:56:58.961Z,7.30
2018-01-18T11:59:27.207Z,7.10
2018-01-18T12:01:54.731Z,7.10
2018-01-18T12:04:22.149Z,7.00
2018-01-18T12:06:49.685Z,6.80
2018-01-18T12:09:17.120Z,6.70
2018-01-18T12:11:45.327Z,6.20
2018-01-18T12:14:12.798Z,6.20
2018-01-18T12:16:40.957Z,5.90
2018-01-18T12:19:09.141Z,5.80
2018-01-18T12:21:37.343Z,5.70
2018-01-18T12:24:04.759Z,5.70
2018-01-18T12:26:32.183Z,5.70
2018-01-18T12:28:59.686Z,5.60
2018-01-18T12:31:27.135Z,5.40
2018-01-18T12:33:54.554Z,5.40
2018-01-18T12:36:21.982Z,5.40
2018-01-18T12:38:49.418Z,5.30
2018-01-18T12:41:17.601Z,5.30
2018-01-18T12:43:45.019Z,5.30
2018-01-18T12:46:12.482Z,5.30
2018-01-18T12:48:39.928Z,5.20
2018-01-18T12:51:07.342Z,5.20
2018-01-18T12:53:34.761Z,5.20
2018-01-18T12:56:02.229Z,5.20
2018-01-18T12:58:29.621Z,5.20
2018-01-18T13:00:57.037Z,5.20
2018-01-18T13:03:25.241Z,5.20
2018-01-18T13:05:52.661Z,5.10
2018-01-18T13:08:20.198Z,5.10
2018-01-18T13:10:47.590Z,5.10
2018-01-18T13:13:15.071Z,5.10
2018-01-18T13:15:42.478Z,5.00
2018-01-18T13:18:09.884Z,5.00
2018-01-18T13:20:37.301Z,5.00
2018-01-18T13:23:05.483Z,4.80
2018-01-18T13:25:33.661Z,4.80
2018-01-18T13:28:01.833Z,4.70
2018-01-18T13:30:29.286Z,4.70
2018-01-18T13:32:56.713Z,4.60
2018-01-18T13:35:24.293Z,4.50
2018-01-18T13:37:52.455Z,4.40
2018-01-18T13:40:20.659Z,4.40
2018-01-18T13:42:48.137Z,4.40
2018-01-18T13:45:15.588Z,4.40
2018-01-18T13:47:43.915Z,4.40
2018-01-18T13:50:11.367Z,4.30
2018-01-18T13:52:38.796Z,4.40
2018-01-18T13:55:06.999Z,4.30
2018-01-18T13:57:34.405Z,4.30
2018-01-18T14:00:01.841Z,4.30
2018-01-18T14:02:29.267Z,4.30
2018-01-18T14:04:56.794Z,4.30
2018-01-18T14:07:24.953Z,4.20
2018-01-18T14:09:52.376Z,4.20
2018-01-18T14:12:19.818Z,4.20
2018-01-18T14:14:47.276Z,4.20
2018-01-18T14:17:14.874Z,4.20
2018-01-18T14:19:42.291Z,4.20
2018-01-18T14:22:10.470Z,4.20
2018-01-18T14:24:38.688Z,4.20
2018-01-18T14:27:06.154Z,4.10
2018-01-18T14:29:33.598Z,4.10
2018-01-18T14:32:01.775Z,4.10
2018-01-18T14:34:29.186Z,4.10
2018-01-18T14:36:56.650Z,4.10
2018-01-18T14:39:24.817Z,4.10
2018-01-18T14:41:52.233Z,4.10
2018-01-18T14:44:19.646Z,4.10
2018-01-18T14:46:47.377Z,4.00
2018-01-18T14:49:14.754Z,4.00
2018-01-18T14:51:42.161Z,4.00
2018-01-18T14:54:09.581Z,4.00
2018-01-18T14:56:37.021Z,4.10
2018-01-18T14:59:04.486Z,4.10
2018-01-18T15:01:31.928Z,4.10
2018-01-18T15:04:00.150Z,4.10
2018-01-18T15:06:27.574Z,4.00
2018-01-18T15:08:55.811Z,4.10
2018-01-18T15:11:23.259Z,4.10
2018-01-18T15:13:50.753Z,4.10
2018-01-18T15:16:18.168Z,4.10
2018-01-18T15:18:46.391Z,4.20
2018-01-18T15:21:13.810Z,4.10
2018-01-18T15:23:41.317Z,4.20
2018-01-18T15:26:08.755Z,4.20
2018-01-18T15:28:36.182Z,4.20
2018-01-18T15:31:03.620Z,4.20
2018-01-18T15:33:31.792Z,4.20
2018-01-18T15:35:59.985Z,4.20
2018-01-18T15:38:27.394Z,4.20
2018-01-18T15:40:54.829Z,4.20
2018-01-18T15:43:22.303Z,4.20
2018-01-18T15:45:49.783Z,4.20
2018-01-18T15:48:17.937Z,4.20
2018-01-18T15:50:46.160Z,4.20
2018-01-18T15:53:13.574Z,4.20
2018-01-18T15:55:41.002Z,4.20
2018-01-18T15:58:08.418Z,4.20
2018-01-18T16:00:36.593Z,4.20
2018-01-18T16:03:04.115Z,4.20
2018-01-18T16:05:31.813Z,4.20
2018-01-18T16:07:59.220Z,4.20
2018-01-18T16:10:27.420Z,4.20
2018-01-18T16:12:54.910Z,4.20
2018-01-18T16:15:23.110Z,4.20
2018-01-18T16:17:50.596Z,4.20
2018-01-18T16:20:18.054Z,4.20
2018-01-18T16:22:45.492Z,4.20
2018-01-18T16:25:12.966Z,4.20
2018-01-18T16:27:40.405Z,4.20
2018-01-18T16:30:08.609Z,4.20
2018-01-18T16:32:36.031Z,4.20
2018-01-18T16:35:03.437Z,4.20
2018-01-18T16:37:31.671Z,4.20
2018-01-18T16:39:59.123Z,4.20
2018-01-18T16:42:26.550Z,4.30
2018-01-18T16:44:53.967Z,4.30
2018-01-18T16:47:21.376Z,4.30
2018-01-18T16:49:48.828Z,4.20
2018-01-18T16:52:16.233Z,4.20
2018-01-18T16:54:44.493Z,4.20
2018-01-18T16:57:11.938Z,4.20
2018-01-18T16:59:39.345Z,4.20
2018-01-18T17:02:07.576Z,4.20
2018-01-18T17:04:35.032Z,4.20
2018-01-18T17:07:02.539Z,4.20
2018-01-18T17:09:29.963Z,4.20
2018-01-18T17:11:57.449Z,4.50
2018-01-18T17:14:24.885Z,5.00
2018-01-18T17:16:53.107Z,5.20
2018-01-18T17:19:20.514Z,5.20
2018-01-18T17:21:47.966Z,4.90
2018-01-18T17:24:15.386Z,4.60
2018-01-18T17:26:43.602Z,4.30
2018-01-18T17:29:11.010Z,4.30
2018-01-18T17:31:38.433Z,4.20
2018-01-18T17:34:05.850Z,4.20
2018-01-18T17:36:33.279Z,4.10
2018-01-18T17:39:00.742Z,4.40
2018-01-18T17:41:28.224Z,5.20
2018-01-18T17:43:55.681Z,5.80
2018-01-18T17:46:23.120Z,6.10
2018-01-18T17:48:51.331Z,5.30
2018-01-18T17:51:18.842Z,5.30
2018-01-18T17:53:46.269Z,4.90
2018-01-18T17:56:13.696Z,4.60
2018-01-18T17:58:41.210Z,4.40
2018-01-18T18:01:08.642Z,4.20
2018-01-18T18:03:36.821Z,3.90
2018-01-18T18:06:04.222Z,3.90
2018-01-18T18:08:31.630Z,3.80
2018-01-18T18:10:59.049Z,3.80
2018-01-18T18:13:26.537Z,3.70
2018-01-18T18:15:53.957Z,3.60
2018-01-18T18:18:21.441Z,3.60
2018-01-18T18:20:49.636Z,3.50
2018-01-18T18:23:17.889Z,3.50
2018-01-18T18:25:45.343Z,3.50
2018-01-18T18:28:12.774Z,3.50
2018-01-18T18:30:40.947Z,3.50
2018-01-18T18:33:08.367Z,3.50
2018-01-18T18:35:35.833Z,3.40
2018-01-18T18:38:03.242Z,3.40
2018-01-18T18:40:30.658Z,3.40
2018-01-18T18:42:58.148Z,3.50
2018-01-18T18:45:25.575Z,3.50
2018-01-18T18:47:53.760Z,3.50
2018-01-18T18:50:21.938Z,3.50
2018-01-18T18:52:49.358Z,3.50
2018-01-18T18:55:17.677Z,3.60
2018-01-18T18:57:45.135Z,3.60
2018-01-18T19:00:13.316Z,3.70
2018-01-18T19:02:40.730Z,3.70
2018-01-18T19:05:08.909Z,3.70
2018-01-18T19:07:36.325Z,3.70
2018-01-18T19:10:03.757Z,3.70
2018-01-18T19:12:31.163Z,3.70
2018-01-18T19:14:59.353Z,3.70
2018-01-18T19:17:26.790Z,3.70
2018-01-18T19:19:54.348Z,3.70
2018-01-18T19:22:21.763Z,3.70
2018-01-18T19:24:49.198Z,3.70
2018-01-18T19:27:16.672Z,3.70
2018-01-18T19:29:44.127Z,3.70
2018-01-18T19:32:11.582Z,3.70
2018-01-18T19:34:38.998Z,3.70
2018-01-18T19:37:07.996Z,4.10
2018-01-18T19:39:35.405Z,4.10
2018-01-18T19:42:02.821Z,4.10
2018-01-18T19:44:30.254Z,4.50
2018-01-18T19:46:57.674Z,4.40
2018-01-18T19:49:25.085Z,4.20
2018-01-18T19:51:52.522Z,4.10
2018-01-18T19:54:19.924Z,4.00
2018-01-18T19:56:47.349Z,4.00
2018-01-18T19:59:14.891Z,3.90
2018-01-18T20:01:42.309Z,3.90
2018-01-18T20:04:10.495Z,3.80
2018-01-18T20:06:38.710Z,3.80
2018-01-18T20:09:06.119Z,3.80
2018-01-18T20:11:33.561Z,3.80
2018-01-18T20:14:00.964Z,3.80
2018-01-18T20:16:28.394Z,3.80
2018-01-18T20:18:55.854Z,3.70
2018-01-18T20:21:23.329Z,3.70
2018-01-18T20:23:50.845Z,3.70
2018-01-18T20:26:18.259Z,3.70
2018-01-18T20:28:45.668Z,3.70
2018-01-18T20:31:13.117Z,3.70
2018-01-18T20:33:40.538Z,3.70
2018-01-18T20:36:08.754Z,3.60
2018-01-18T20:38:36.173Z,3.60
2018-01-18T20:41:03.689Z,3.60
2018-01-18T20:43:31.113Z,3.60
2018-01-18T20:45:58.597Z,3.50
2018-01-18T20:48:26.817Z,3.60
2018-01-18T20:50:54.229Z,3.50
2018-01-18T20:53:21.674Z,3.60
2018-01-18T20:55:49.121Z,3.60
2018-01-18T20:58:16.546Z,3.70
2018-01-18T21:00:44.757Z,3.70
2018-01-18T21:03:12.181Z,3.70
2018-01-18T21:05:39.601Z,3.70
2018-01-18T21:08:07.015Z,3.70
2018-01-18T21:10:34.465Z,3.70
2018-01-18T21:13:01.871Z,3.70
2018-01-18T21:15:30.102Z,3.80
2018-01-18T21:17:57.539Z,3.80
2018-01-18T21:20:25.750Z,3.80
2018-01-18T21:22:53.172Z,3.80
2018-01-18T21:25:20.595Z,3.80
2018-01-18T21:27:48.051Z,3.80
2018-01-18T21:30:15.478Z,3.80
2018-01-18T21:32:42.981Z,3.80
2018-01-18T21:35:10.407Z,3.80
2018-01-18T21:37:37.826Z,3.80
2018-01-18T21:40:05.237Z,3.90
2018-01-18T21:42:32.669Z,3.90
2018-01-18T21:45:00.098Z,3.90
2018-01-18T21:47:27.603Z,3.90
2018-01-18T21:49:55.054Z,3.90
2018-01-18T21:52:22.468Z,3.90
2018-01-18T21:54:49.898Z,3.90
2018-01-18T21:57:18.097Z,3.90
2018-01-18T21:59:45.568Z,3.90
2018-01-18T22:02:13.019Z,3.90
2018-01-18T22:04:40.435Z,3.90
2018-01-18T22:07:07.868Z,3.90
2018-01-18T22:09:35.273Z,3.90
2018-01-18T22:12:02.682Z,3.90
2018-01-18T22:14:30.105Z,3.90
2018-01-18T22:16:57.529Z,3.90
2018-01-18T22:19:24.956Z,3.90
2018-01-18T22:21:52.475Z,3.90
2018-01-18T22:24:19.943Z,3.90
2018-01-18T22:26:47.437Z,3.90
2018-01-18T22:29:14.856Z,3.90
2018-01-18T22:31:42.313Z,3.90
2018-01-18T22:34:10.507Z,3.90
2018-01-18T22:36:38.689Z,3.90
2018-01-18T22:39:06.869Z,3.90
2018-01-18T22:41:35.102Z,3.90
2018-01-18T22:44:02.670Z,3.90
2018-01-18T22:46:30.844Z,3.90
2018-01-18T22:48:58.326Z,3.90
2018-01-18T22:51:26.481Z,3.90
2018-01-18T22:53:54.702Z,3.90
2018-01-18T22:56:22.139Z,3.90
2018-01-18T22:58:50.386Z,3.90
2018-01-18T23:01:17.835Z,3.90
2018-01-18T23:03:45.404Z,3.90
2018-01-18T23:06:12.852Z,3.90
2018-01-18T23:08:40.261Z,3.90
2018-01-18T23:11:07.690Z,3.90
2018-01-18T23:13:35.105Z,3.90
2018-01-18T23:16:02.649Z,3.90
2018-01-18T23:18:30.157Z,3.90
2018-01-18T23:20:57.570Z,3.90
2018-01-18T23:23:25.055Z,3.90
2018-01-18T23:25:52.512Z,3.90
2018-01-18T23:28:19.937Z,3.90
2018-01-18T23:30:47.347Z,3.90
2018-01-18T23:33:14.818Z,3.90
2018-01-18T23:35:42.382Z,3.90
2018-01-18T23:38:10.539Z,3.90
2018-01-18T23:40:38.710Z,4.00
2018-01-18T23:43:06.908Z,4.00
2018-01-18T23:45:34.317Z,3.90
2018-01-18T23:48:01.748Z,4.00
2018-01-18T23:50:29.946Z,4.00
2018-01-18T23:52:57.380Z,3.90
2018-01-18T23:55:24.785Z,4.00
2018-01-18T23:57:52.219Z,4.00
